Pagrindinis puslapis
METAR-TAF:

METAR-TAF

Oro uostai :

St. Mary's, Aliaska, Jungtinės Amerikos Valstijos

platuma: 62-03N, ilguma: 163-18W, Aukštis: 95 m

Dabartinis oras

Ataskaita buvo paskelbta 13 minutes, ne 23:23 UTC
Vėjas 7 kt iš Pietų
Temperatūra 8°C
Drėgmė 76%
Slėgis 1018 hPa
Matomumas: 16.1 km
Išsisklaidę debesys ne aukštis 2200 ft
Apsiniaukę ne aukštis 3000 ft

METAR: PASM 052323Z AUTO 19007KT 10SM SCT022 OVC030 08/04 A3006 RMK AO2

Laikas: 15:36 (23:36 UTC)


TAF: trūkstamas

Orai ataskaitas ir orų prognozės (METAR, TAF).

turimą stotys yra geltonos ir raudonos taškus žemėlapyje.

Perkelti pele per norėdami pamatyti stoties vardą.

Tada spustelėkite, norėdami matyti oro stebėjimo ir prognozės.

Norėdami pakeisti žemėlapį: spustelėkite ant žalios mygtukų su juodo kryžiaus žemyn,; žalią mygtuką su brūkšneliu, jei norite nutolinti; arba žalių rodyklių gretimoms žemėlapius.


METAR-TAF: